Lincoln Park, Michigan
Current Conditions -  °F | °C
As of 12:53 AM on Monday 26 Jan 2015 (Local Time) from KDTW Reporting Station
Overcast Overcast  
Wind Chill:   Ceiling: 14000
Heat Index: 18°   Visibility: 10mi
Dew Point:   Wind: 10mph
Humidity: 57%   Direction: 20°NNE
Pressure: 29.98"   Gusts: NA
Location:  42.25°N, 83.18°W
Report Text: KDTW 260553Z 02009KT 10SM OVC140 M08/M15 A2998 RMK AO2 SLP162 T10781150 11067 21078 50002
Loading
Personal Weather Stations






























Interactive Weather Map New forecast layout! Learn more

10-Day Weather Forecast

Advertisements
Track Severe Weather on mobile